Terminal Aerodrome Forecast
Issued by NWS Quad Cities IA IL

Home | Current Version | Previous Version | Text Only | Print | Product List | Glossary On
Versions: 1 2 3 4 5 6 7 8 9 10 11 12 13 14 15 16 17 18 19 20 21 22 23 24 25 26 27
000
FTUS43 KDVN 150103 AAB
TAFDBQ
TAF AMD
KDBQ 150103Z 1501/1524 16011KT 6SM BR VCSH BKN004 OVC035
     FM150200 18010KT 6SM BR VCSH BKN006 OVC035
     FM150500 28013KT 6SM BR OVC004
     FM150800 29017G26KT 4SM BR OVC003
     FM151300 32020G30KT P6SM OVC010
     FM151900 33015G20KT P6SM BKN035=

USA.gov is the U.S. government's official web portal to all federal, state and local government web resources and services.